createdAt,value
2018-12-09T00:00:04.748Z,99.99
2018-12-09T00:01:04.766Z,99.99
2018-12-09T00:02:57.672Z,99.99
2018-12-09T00:03:57.678Z,99.99
2018-12-09T00:05:50.579Z,99.99
2018-12-09T00:06:50.593Z,99.99
2018-12-09T00:08:43.510Z,99.99
2018-12-09T00:09:43.506Z,99.99
2018-12-09T00:11:36.506Z,99.99
2018-12-09T00:12:36.431Z,99.99
2018-12-09T00:14:29.341Z,99.99
2018-12-09T00:15:29.326Z,99.99
2018-12-09T00:17:22.240Z,99.99
2018-12-09T00:18:22.238Z,99.99
2018-12-09T00:20:15.253Z,99.99
2018-12-09T00:21:15.146Z,99.99
2018-12-09T00:23:08.068Z,99.99
2018-12-09T00:24:08.106Z,99.99
2018-12-09T00:26:00.965Z,99.99
2018-12-09T00:27:00.962Z,99.99
2018-12-09T00:28:53.925Z,99.99
2018-12-09T00:29:53.931Z,99.99
2018-12-09T00:31:46.834Z,99.99
2018-12-09T00:32:46.838Z,99.99
2018-12-09T00:34:39.737Z,99.99
2018-12-09T00:35:39.750Z,99.99
2018-12-09T00:37:32.783Z,99.99
2018-12-09T00:38:32.662Z,99.99
2018-12-09T00:40:25.559Z,99.99
2018-12-09T00:41:25.573Z,99.99
2018-12-09T00:43:18.474Z,99.99
2018-12-09T00:44:18.479Z,99.99
2018-12-09T00:46:11.383Z,99.99
2018-12-09T00:47:11.392Z,99.99
2018-12-09T00:49:04.298Z,99.99
2018-12-09T00:50:04.302Z,99.99
2018-12-09T00:51:57.207Z,99.99
2018-12-09T00:52:57.212Z,99.99
2018-12-09T00:54:50.112Z,99.99
2018-12-09T00:55:50.126Z,99.99
2018-12-09T00:57:43.030Z,99.99
2018-12-09T00:58:43.034Z,99.99
2018-12-09T01:00:35.936Z,99.99
2018-12-09T01:01:35.947Z,99.99
2018-12-09T01:03:28.853Z,99.99
2018-12-09T01:04:28.856Z,99.99
2018-12-09T01:06:21.755Z,99.99
2018-12-09T01:07:21.769Z,99.99
2018-12-09T01:09:14.675Z,99.99
2018-12-09T01:10:14.700Z,99.99
2018-12-09T01:12:07.589Z,99.99
2018-12-09T01:13:07.644Z,99.99
2018-12-09T01:15:00.488Z,99.99
2018-12-09T01:16:00.503Z,99.99
2018-12-09T01:17:53.402Z,99.99
2018-12-09T01:18:53.418Z,99.99
2018-12-09T01:20:46.313Z,99.99
2018-12-09T01:21:46.325Z,99.99
2018-12-09T01:23:39.229Z,99.99
2018-12-09T01:24:39.242Z,99.99
2018-12-09T01:26:32.141Z,99.99
2018-12-09T01:27:32.144Z,99.99
2018-12-09T01:29:25.055Z,99.99
2018-12-09T01:30:25.061Z,99.99
2018-12-09T01:32:17.964Z,99.99
2018-12-09T01:33:17.963Z,99.99
2018-12-09T01:35:10.913Z,99.99
2018-12-09T01:36:10.883Z,99.99
2018-12-09T01:38:03.793Z,99.99
2018-12-09T01:39:03.802Z,99.99
2018-12-09T01:40:56.702Z,99.99
2018-12-09T01:41:57.251Z,99.99
2018-12-09T01:43:49.613Z,99.99
2018-12-09T01:44:51.644Z,99.99
2018-12-09T01:46:42.522Z,99.99
2018-12-09T01:47:42.536Z,99.99
2018-12-09T01:49:35.444Z,99.99
2018-12-09T01:50:35.454Z,99.99
2018-12-09T01:52:28.431Z,99.99
2018-12-09T01:53:28.400Z,99.99
2018-12-09T01:55:21.256Z,99.99
2018-12-09T01:56:21.268Z,99.99
2018-12-09T01:58:14.171Z,99.99
2018-12-09T01:59:14.178Z,99.99
2018-12-09T02:01:07.076Z,99.99
2018-12-09T02:02:07.089Z,99.99
2018-12-09T02:03:59.994Z,99.99
2018-12-09T02:04:59.999Z,99.99
2018-12-09T02:06:52.902Z,99.99
2018-12-09T02:07:52.909Z,99.99
2018-12-09T02:09:45.865Z,99.99
2018-12-09T02:10:45.818Z,99.99
2018-12-09T02:12:38.723Z,99.99
2018-12-09T02:13:38.730Z,99.99
2018-12-09T02:15:31.637Z,99.99
2018-12-09T02:16:31.645Z,99.99
2018-12-09T02:18:24.574Z,99.99
2018-12-09T02:19:24.583Z,99.99
2018-12-09T02:21:17.486Z,99.99
2018-12-09T02:22:17.500Z,99.99
2018-12-09T02:24:10.427Z,99.99
2018-12-09T02:25:10.434Z,99.99
2018-12-09T02:27:03.333Z,99.99
2018-12-09T02:28:03.346Z,99.99
2018-12-09T02:29:56.767Z,99.99
2018-12-09T02:30:56.751Z,99.99
2018-12-09T02:32:49.659Z,99.99
2018-12-09T02:33:49.664Z,99.99
2018-12-09T02:35:42.562Z,99.99
2018-12-09T02:36:42.575Z,99.99
2018-12-09T02:38:35.481Z,99.99
2018-12-09T02:39:35.485Z,99.99
2018-12-09T02:41:28.382Z,99.99
2018-12-09T02:42:28.395Z,99.99
2018-12-09T02:44:21.324Z,99.99
2018-12-09T02:45:21.309Z,99.99
2018-12-09T02:47:14.208Z,99.99
2018-12-09T02:48:14.218Z,99.99
2018-12-09T02:50:07.123Z,99.99
2018-12-09T02:51:07.127Z,99.99
2018-12-09T02:53:00.044Z,99.99
2018-12-09T02:54:00.049Z,99.99
2018-12-09T02:55:52.948Z,99.99
2018-12-09T02:56:52.964Z,99.99
2018-12-09T02:58:45.866Z,99.99
2018-12-09T02:59:45.867Z,99.99
2018-12-09T03:01:38.760Z,99.99
2018-12-09T03:02:38.781Z,99.99
2018-12-09T03:04:31.685Z,99.99
2018-12-09T03:05:31.753Z,99.99
2018-12-09T03:07:24.787Z,99.99
2018-12-09T03:08:24.800Z,99.99
2018-12-09T03:10:17.705Z,99.99
2018-12-09T03:11:17.714Z,99.99
2018-12-09T03:13:10.610Z,99.99
2018-12-09T03:14:10.622Z,99.99
2018-12-09T03:16:03.532Z,99.99
2018-12-09T03:17:03.536Z,99.99
2018-12-09T03:18:56.442Z,99.99
2018-12-09T03:19:56.450Z,99.99
2018-12-09T03:21:49.346Z,99.99
2018-12-09T03:22:49.366Z,99.99
2018-12-09T03:24:42.266Z,99.99
2018-12-09T03:25:42.272Z,99.99
2018-12-09T03:27:35.177Z,99.99
2018-12-09T03:28:35.288Z,99.99
2018-12-09T03:30:28.092Z,99.99
2018-12-09T03:31:28.105Z,99.99
2018-12-09T03:33:21.019Z,99.99
2018-12-09T03:34:21.008Z,99.99
2018-12-09T03:36:13.913Z,99.99
2018-12-09T03:37:13.919Z,99.99
2018-12-09T03:39:07.831Z,99.99
2018-12-09T03:40:07.826Z,99.99
2018-12-09T03:42:00.732Z,99.99
2018-12-09T03:43:00.736Z,99.99
2018-12-09T03:44:53.673Z,99.99
2018-12-09T03:45:53.654Z,99.99
2018-12-09T03:47:46.555Z,99.99
2018-12-09T03:48:46.564Z,99.99
2018-12-09T03:50:40.464Z,99.99
2018-12-09T03:51:40.479Z,99.99
2018-12-09T03:53:33.364Z,99.99
2018-12-09T03:54:33.375Z,99.99
2018-12-09T03:56:26.304Z,99.99
2018-12-09T03:57:26.295Z,99.99
2018-12-09T03:59:19.205Z,99.99
2018-12-09T04:00:19.203Z,99.99
2018-12-09T04:02:12.095Z,99.99
2018-12-09T04:03:12.112Z,99.99
2018-12-09T04:05:05.019Z,99.99
2018-12-09T04:06:05.022Z,99.99
2018-12-09T04:07:58.949Z,99.99
2018-12-09T04:08:58.934Z,99.99
2018-12-09T04:10:51.855Z,99.99
2018-12-09T04:11:51.844Z,99.99
2018-12-09T04:13:44.939Z,99.99
2018-12-09T04:14:44.951Z,99.99
2018-12-09T04:16:37.872Z,99.99
2018-12-09T04:17:37.882Z,99.99
2018-12-09T04:19:30.784Z,99.99
2018-12-09T04:20:30.795Z,99.99
2018-12-09T04:22:23.688Z,99.99
2018-12-09T04:23:23.722Z,99.99
2018-12-09T04:25:16.614Z,99.99
2018-12-09T04:26:16.629Z,99.99
2018-12-09T04:28:09.517Z,99.99
2018-12-09T04:29:09.536Z,99.99
2018-12-09T04:31:02.434Z,99.99
2018-12-09T04:32:02.442Z,99.99
2018-12-09T04:33:55.342Z,99.99
2018-12-09T04:34:55.350Z,99.99
2018-12-09T04:36:48.254Z,99.99
2018-12-09T04:37:48.258Z,99.99
2018-12-09T04:39:41.163Z,99.99
2018-12-09T04:40:41.168Z,99.99
2018-12-09T04:42:34.578Z,99.99
2018-12-09T04:43:34.584Z,99.99
2018-12-09T04:45:28.483Z,99.99
2018-12-09T04:46:28.489Z,99.99
2018-12-09T04:48:21.384Z,99.99
2018-12-09T04:49:21.400Z,99.99
2018-12-09T04:51:14.304Z,99.99
2018-12-09T04:52:14.310Z,99.99
2018-12-09T04:54:07.209Z,99.99
2018-12-09T04:55:07.224Z,99.99
2018-12-09T04:57:00.273Z,99.99
2018-12-09T04:58:00.265Z,99.99
2018-12-09T04:59:53.168Z,99.99
2018-12-09T05:00:53.168Z,99.99
2018-12-09T05:02:46.067Z,99.99
2018-12-09T05:03:46.082Z,99.99
2018-12-09T05:05:38.987Z,99.99
2018-12-09T05:06:38.991Z,99.99
2018-12-09T05:08:31.894Z,99.99
2018-12-09T05:09:31.904Z,99.99
2018-12-09T05:11:24.810Z,99.99
2018-12-09T05:12:24.816Z,99.99
2018-12-09T05:14:17.725Z,99.99
2018-12-09T05:15:17.729Z,99.99
2018-12-09T05:17:10.634Z,99.99
2018-12-09T05:18:10.641Z,99.99
2018-12-09T05:20:03.545Z,99.99
2018-12-09T05:21:03.553Z,99.99
2018-12-09T05:22:56.463Z,99.99
2018-12-09T05:23:56.469Z,99.99
2018-12-09T05:25:49.377Z,99.99
2018-12-09T05:26:56.507Z,99.99
2018-12-09T05:28:42.490Z,99.99
2018-12-09T05:29:49.616Z,99.99
2018-12-09T05:31:35.403Z,99.99
2018-12-09T05:32:35.399Z,99.99
2018-12-09T05:34:28.306Z,99.99
2018-12-09T05:35:35.442Z,99.99
2018-12-09T05:37:21.221Z,99.99
2018-12-09T05:38:21.224Z,99.99
2018-12-09T05:40:14.158Z,99.99
2018-12-09T05:41:14.130Z,99.99
2018-12-09T05:43:07.030Z,99.99
2018-12-09T05:44:07.046Z,99.99
2018-12-09T05:45:59.949Z,99.99
2018-12-09T05:46:59.957Z,99.99
2018-12-09T05:48:53.846Z,99.99
2018-12-09T05:49:53.861Z,99.99
2018-12-09T05:51:46.789Z,99.99
2018-12-09T05:52:46.769Z,99.99
2018-12-09T05:54:39.668Z,99.99
2018-12-09T05:55:39.681Z,99.99
2018-12-09T05:57:32.590Z,99.99
2018-12-09T05:58:32.594Z,99.99
2018-12-09T06:00:32.626Z,99.99
2018-12-09T06:01:32.631Z,99.99
2018-12-09T06:03:18.405Z,99.99
2018-12-09T06:04:26.539Z,99.99
2018-12-09T06:06:11.324Z,99.99
2018-12-09T06:07:11.329Z,99.99
2018-12-09T06:09:04.228Z,99.99
2018-12-09T06:10:04.242Z,99.99
2018-12-09T06:11:57.146Z,99.99
2018-12-09T06:12:57.153Z,99.99
2018-12-09T06:14:50.056Z,99.99
2018-12-09T06:15:50.069Z,99.99
2018-12-09T06:17:42.976Z,99.99
2018-12-09T06:18:42.998Z,99.99
2018-12-09T06:20:35.893Z,99.99
2018-12-09T06:21:35.893Z,99.99
2018-12-09T06:23:28.796Z,99.99
2018-12-09T06:24:28.811Z,99.99
2018-12-09T06:26:21.714Z,99.99
2018-12-09T06:27:21.721Z,99.99
2018-12-09T06:29:14.620Z,99.99
2018-12-09T06:30:14.632Z,99.99
2018-12-09T06:32:07.535Z,99.99
2018-12-09T06:33:07.540Z,99.99
2018-12-09T06:35:01.439Z,99.99
2018-12-09T06:36:01.458Z,99.99
2018-12-09T06:37:54.366Z,99.99
2018-12-09T06:38:54.365Z,99.99
2018-12-09T06:40:47.275Z,99.99
2018-12-09T06:41:47.277Z,99.99
2018-12-09T06:43:40.174Z,99.99
2018-12-09T06:44:40.189Z,99.99
2018-12-09T06:46:33.097Z,99.99
2018-12-09T06:47:33.103Z,99.99
2018-12-09T06:49:26.006Z,99.99
2018-12-09T06:50:26.016Z,99.99
2018-12-09T06:52:18.921Z,99.99
2018-12-09T06:53:18.930Z,99.99
2018-12-09T06:55:11.827Z,99.99
2018-12-09T06:56:11.841Z,99.99
2018-12-09T06:58:04.752Z,99.99
2018-12-09T06:59:04.751Z,99.99
2018-12-09T07:00:57.662Z,99.99
2018-12-09T07:01:57.666Z,99.99
2018-12-09T07:03:50.565Z,99.99
2018-12-09T07:04:50.578Z,99.99
2018-12-09T07:06:43.482Z,99.99
2018-12-09T07:07:43.490Z,99.99
2018-12-09T07:09:36.416Z,99.99
2018-12-09T07:10:36.415Z,99.99
2018-12-09T07:12:29.322Z,99.99
2018-12-09T07:13:29.329Z,99.99
2018-12-09T07:15:22.230Z,99.99
2018-12-09T07:16:22.240Z,99.99
2018-12-09T07:18:15.144Z,99.99
2018-12-09T07:19:15.150Z,99.99
2018-12-09T07:21:08.056Z,99.99
2018-12-09T07:22:08.059Z,99.99
2018-12-09T07:24:00.967Z,99.99
2018-12-09T07:25:00.980Z,99.99
2018-12-09T07:26:53.884Z,99.99
2018-12-09T07:27:53.890Z,99.99
2018-12-09T07:29:47.981Z,99.99
2018-12-09T07:30:47.995Z,99.99
2018-12-09T07:32:40.901Z,99.99
2018-12-09T07:33:41.012Z,99.99
2018-12-09T07:35:33.807Z,99.99
2018-12-09T07:36:33.821Z,99.99
2018-12-09T07:38:26.726Z,99.99
2018-12-09T07:39:26.730Z,99.99
2018-12-09T07:41:19.651Z,99.99
2018-12-09T07:42:19.643Z,99.99
2018-12-09T07:44:13.036Z,99.99
2018-12-09T07:45:13.049Z,99.99
2018-12-09T07:47:05.960Z,99.99
2018-12-09T07:48:05.960Z,99.99
2018-12-09T07:49:58.860Z,99.99
2018-12-09T07:50:58.871Z,99.99
2018-12-09T07:52:51.778Z,99.99
2018-12-09T07:53:51.782Z,99.99
2018-12-09T07:55:44.688Z,99.99
2018-12-09T07:56:44.704Z,99.99
2018-12-09T07:58:37.608Z,99.99
2018-12-09T07:59:37.613Z,99.99
2018-12-09T08:01:30.519Z,99.99
2018-12-09T08:02:30.528Z,99.99
2018-12-09T08:04:23.423Z,99.99
2018-12-09T08:05:23.561Z,99.99
2018-12-09T08:07:16.340Z,99.99
2018-12-09T08:08:16.344Z,99.99
2018-12-09T08:10:09.244Z,99.99
2018-12-09T08:11:09.257Z,99.99
2018-12-09T08:13:02.161Z,99.99
2018-12-09T08:14:02.170Z,99.99
2018-12-09T08:15:55.068Z,99.99
2018-12-09T08:16:55.083Z,99.99
2018-12-09T08:18:47.987Z,99.99
2018-12-09T08:19:47.990Z,99.99
2018-12-09T08:21:40.895Z,99.99
2018-12-09T08:22:40.901Z,99.99
2018-12-09T08:24:33.797Z,99.99
2018-12-09T08:25:33.811Z,99.99
2018-12-09T08:27:26.718Z,99.99
2018-12-09T08:28:26.723Z,99.99
2018-12-09T08:30:19.624Z,99.99
2018-12-09T08:31:19.637Z,99.99
2018-12-09T08:33:35.909Z,99.99
2018-12-09T08:34:35.910Z,99.99
2018-12-09T08:36:28.819Z,99.99
2018-12-09T08:37:28.858Z,99.99
2018-12-09T08:39:21.760Z,99.99
2018-12-09T08:40:21.758Z,99.99
2018-12-09T08:42:14.634Z,99.99
2018-12-09T08:43:14.639Z,99.99
2018-12-09T08:45:07.582Z,99.99
2018-12-09T08:46:07.618Z,99.99
2018-12-09T08:48:00.538Z,99.99
2018-12-09T08:49:00.462Z,99.99
2018-12-09T08:50:53.387Z,99.99
2018-12-09T08:51:53.375Z,99.99
2018-12-09T08:53:46.422Z,99.99
2018-12-09T08:54:46.388Z,99.99
2018-12-09T08:56:39.192Z,99.99
2018-12-09T08:57:39.248Z,99.99
2018-12-09T08:59:32.121Z,99.99
2018-12-09T09:00:32.134Z,99.99
2018-12-09T09:02:25.011Z,99.99
2018-12-09T09:03:25.034Z,99.99
2018-12-09T09:05:17.972Z,99.99
2018-12-09T09:06:17.973Z,99.99
2018-12-09T09:08:10.913Z,99.99
2018-12-09T09:09:10.870Z,99.99
2018-12-09T09:11:03.764Z,99.99
2018-12-09T09:12:03.789Z,99.99
2018-12-09T09:13:56.701Z,99.99
2018-12-09T09:14:56.695Z,99.99
2018-12-09T09:16:49.659Z,99.99
2018-12-09T09:17:49.593Z,99.99
2018-12-09T09:19:42.515Z,99.99
2018-12-09T09:20:42.510Z,99.99
2018-12-09T09:22:36.431Z,99.99
2018-12-09T09:23:35.979Z,99.99
2018-12-09T09:25:28.337Z,99.99
2018-12-09T09:26:28.348Z,99.99
2018-12-09T09:28:21.320Z,99.99
2018-12-09T09:29:21.273Z,99.99
2018-12-09T09:31:14.674Z,99.99
2018-12-09T09:32:14.657Z,99.99
2018-12-09T09:34:07.642Z,99.99
2018-12-09T09:35:07.580Z,99.99
2018-12-09T09:37:00.964Z,99.99
2018-12-09T09:38:00.506Z,99.99
2018-12-09T09:39:53.377Z,99.99
2018-12-09T09:40:53.395Z,99.99
2018-12-09T09:42:46.357Z,99.99
2018-12-09T09:43:46.332Z,99.79
2018-12-09T09:45:39.259Z,99.60
2018-12-09T09:46:39.232Z,99.31
2018-12-09T09:48:32.177Z,99.12
2018-12-09T09:49:32.142Z,98.36
2018-12-09T09:51:25.068Z,98.65
2018-12-09T09:52:25.094Z,98.08
2018-12-09T09:54:18.024Z,98.27
2018-12-09T09:55:17.963Z,97.69
2018-12-09T09:57:10.925Z,98.46
2018-12-09T09:58:10.886Z,97.60
2018-12-09T10:00:03.789Z,97.55
2018-12-09T10:01:03.786Z,97.27
2018-12-09T10:02:56.722Z,96.31
2018-12-09T10:03:57.337Z,95.84
2018-12-09T10:05:49.634Z,94.89
2018-12-09T10:06:49.630Z,95.27
2018-12-09T10:08:42.598Z,95.75
2018-12-09T10:09:42.547Z,96.12
2018-12-09T10:11:35.449Z,94.98
2018-12-09T10:12:35.458Z,94.70
2018-12-09T10:14:28.375Z,94.03
2018-12-09T10:15:28.370Z,93.37
2018-12-09T10:17:21.337Z,93.46
2018-12-09T10:18:21.269Z,94.03
2018-12-09T10:20:14.186Z,93.74
2018-12-09T10:21:14.156Z,93.84
2018-12-09T10:23:07.063Z,93.89
2018-12-09T10:24:07.067Z,93.98
2018-12-09T10:25:59.974Z,94.65
2018-12-09T10:27:00.019Z,93.89
2018-12-09T10:28:52.896Z,94.65
2018-12-09T10:29:52.901Z,95.22
2018-12-09T10:31:45.805Z,94.93
2018-12-09T10:32:45.824Z,94.93
2018-12-09T10:34:39.033Z,94.60
2018-12-09T10:35:38.725Z,94.37
2018-12-09T10:37:31.731Z,94.46
2018-12-09T10:38:31.645Z,93.89
2018-12-09T10:40:24.548Z,94.27
2018-12-09T10:41:24.562Z,94.70
2018-12-09T10:43:17.972Z,94.46
2018-12-09T10:44:17.980Z,94.46
2018-12-09T10:46:10.876Z,94.65
2018-12-09T10:47:10.891Z,95.03
2018-12-09T10:49:03.799Z,95.12
2018-12-09T10:50:03.805Z,94.93
2018-12-09T10:51:56.702Z,94.93
2018-12-09T10:52:56.716Z,94.65
2018-12-09T10:54:49.824Z,95.22
2018-12-09T10:55:49.833Z,95.03
2018-12-09T10:57:43.253Z,95.12
2018-12-09T10:58:43.249Z,94.93
2018-12-09T11:00:36.358Z,95.12
2018-12-09T11:01:36.376Z,94.46
2018-12-09T11:03:29.292Z,95.03
2018-12-09T11:04:29.375Z,94.74
2018-12-09T11:06:22.237Z,94.93
2018-12-09T11:07:22.249Z,95.70
2018-12-09T11:09:15.155Z,96.36
2018-12-09T11:10:15.137Z,96.26
2018-12-09T11:12:08.141Z,95.70
2018-12-09T11:13:08.061Z,94.74
2018-12-09T11:15:01.029Z,93.70
2018-12-09T11:16:01.013Z,94.65
2018-12-09T11:17:53.964Z,94.70
2018-12-09T11:18:53.927Z,94.03
2018-12-09T11:20:46.810Z,93.94
2018-12-09T11:21:46.865Z,93.94
2018-12-09T11:23:39.789Z,94.13
2018-12-09T11:24:39.746Z,93.94
2018-12-09T11:26:32.679Z,93.84
2018-12-09T11:27:32.689Z,93.74
2018-12-09T11:29:25.559Z,92.89
2018-12-09T11:30:25.604Z,92.51
2018-12-09T11:32:18.664Z,92.70
2018-12-09T11:33:18.784Z,92.79
2018-12-09T11:35:11.627Z,92.99
2018-12-09T11:36:11.626Z,92.89
2018-12-09T11:38:04.534Z,93.08
2018-12-09T11:39:04.539Z,92.70
2018-12-09T11:40:58.463Z,92.22
2018-12-09T11:41:58.465Z,91.75
2018-12-09T11:43:51.370Z,92.13
2018-12-09T11:44:51.419Z,92.03
2018-12-09T11:46:44.293Z,92.41
2018-12-09T11:47:44.332Z,92.13
2018-12-09T11:49:37.348Z,91.56
2018-12-09T11:50:37.358Z,92.13
2018-12-09T11:52:31.264Z,91.65
2018-12-09T11:53:31.286Z,91.70
2018-12-09T11:55:24.194Z,91.70
2018-12-09T11:56:24.200Z,91.61
2018-12-09T11:58:17.163Z,92.27
2018-12-09T11:59:17.109Z,92.08
2018-12-09T12:01:10.097Z,91.99
2018-12-09T12:02:10.082Z,92.56
2018-12-09T12:04:02.998Z,93.79
2018-12-09T12:05:02.985Z,93.79
2018-12-09T12:06:55.883Z,93.89
2018-12-09T12:07:55.942Z,93.60
2018-12-09T12:09:48.810Z,93.70
2018-12-09T12:10:48.817Z,93.23
2018-12-09T12:12:41.707Z,94.08
2018-12-09T12:13:41.720Z,93.79
2018-12-09T12:15:34.623Z,94.03
2018-12-09T12:16:34.628Z,93.94
2018-12-09T12:18:27.534Z,94.03
2018-12-09T12:19:27.539Z,93.55
2018-12-09T12:21:20.438Z,93.65
2018-12-09T12:22:20.444Z,92.51
2018-12-09T12:24:13.359Z,92.03
2018-12-09T12:25:13.365Z,92.70
2018-12-09T12:27:06.267Z,92.99
2018-12-09T12:28:06.317Z,92.41
2018-12-09T12:29:59.187Z,91.46
2018-12-09T12:30:59.194Z,92.27
2018-12-09T12:32:52.093Z,91.22
2018-12-09T12:33:52.108Z,91.89
2018-12-09T12:35:45.015Z,91.70
2018-12-09T12:36:45.105Z,91.79
2018-12-09T12:38:37.965Z,91.60
2018-12-09T12:39:38.047Z,91.79
2018-12-09T12:41:31.895Z,90.65
2018-12-09T12:42:30.861Z,91.22
2018-12-09T12:44:23.989Z,91.46
2018-12-09T12:45:23.779Z,90.36
2018-12-09T12:47:16.678Z,90.27
2018-12-09T12:48:16.695Z,89.51
2018-12-09T12:50:09.602Z,90.65
2018-12-09T12:51:09.607Z,90.84
2018-12-09T12:53:02.510Z,91.60
2018-12-09T12:54:05.552Z,91.41
2018-12-09T12:55:55.429Z,91.41
2018-12-09T12:56:55.453Z,90.75
2018-12-09T12:58:48.337Z,91.03
2018-12-09T12:59:48.365Z,91.41
2018-12-09T13:01:41.259Z,91.41
2018-12-09T13:02:41.264Z,91.41
2018-12-09T13:04:34.171Z,91.70
2018-12-09T13:05:34.183Z,92.27
2018-12-09T13:07:27.092Z,92.46
2018-12-09T13:08:27.087Z,92.94
2018-12-09T13:10:20.022Z,93.03
2018-12-09T13:11:20.022Z,93.41
2018-12-09T13:13:12.919Z,93.51
2018-12-09T13:14:12.933Z,93.03
2018-12-09T13:16:05.844Z,91.41
2018-12-09T13:17:05.854Z,91.70
2018-12-09T13:18:58.747Z,91.41
2018-12-09T13:19:58.760Z,91.31
2018-12-09T13:21:51.688Z,91.41
2018-12-09T13:22:51.671Z,90.46
2018-12-09T13:24:44.581Z,90.46
2018-12-09T13:25:44.588Z,90.75
2018-12-09T13:27:37.686Z,91.51
2018-12-09T13:28:37.705Z,91.41
2018-12-09T13:30:30.614Z,92.18
2018-12-09T13:31:30.623Z,91.99
2018-12-09T13:33:23.519Z,93.41
2018-12-09T13:34:23.534Z,93.74
2018-12-09T13:36:16.468Z,94.03
2018-12-09T13:37:16.443Z,94.98
2018-12-09T13:39:09.343Z,94.98
2018-12-09T13:40:09.357Z,95.08
2018-12-09T13:42:02.267Z,95.65
2018-12-09T13:43:02.270Z,95.75
2018-12-09T13:44:55.180Z,96.03
2018-12-09T13:45:55.185Z,95.65
2018-12-09T13:47:48.086Z,95.32
2018-12-09T13:48:48.099Z,94.89
2018-12-09T13:50:41.008Z,93.89
2018-12-09T13:51:41.013Z,94.08
2018-12-09T13:53:33.953Z,94.46
2018-12-09T13:54:34.003Z,94.93
2018-12-09T13:56:26.864Z,93.60
2018-12-09T13:57:26.871Z,93.41
2018-12-09T13:59:19.773Z,92.46
2018-12-09T14:00:19.789Z,92.27
2018-12-09T14:02:12.695Z,92.94
2018-12-09T14:03:12.705Z,92.55
2018-12-09T14:05:05.610Z,92.18
2018-12-09T14:06:05.617Z,91.51
2018-12-09T14:07:58.555Z,91.41
2018-12-09T14:08:58.532Z,91.22
2018-12-09T14:10:51.449Z,90.46
2018-12-09T14:11:51.458Z,91.13
2018-12-09T14:13:44.426Z,91.13
2018-12-09T14:14:44.369Z,91.70
2018-12-09T14:16:37.279Z,91.70
2018-12-09T14:17:44.406Z,92.65
2018-12-09T14:19:30.189Z,93.22
2018-12-09T14:20:37.329Z,92.74
2018-12-09T14:22:30.253Z,93.22
2018-12-09T14:23:30.313Z,94.17
2018-12-09T14:25:16.041Z,95.03
2018-12-09T14:26:23.164Z,95.08
2018-12-09T14:28:16.074Z,95.65
2018-12-09T14:29:16.081Z,95.65
2018-12-09T14:31:08.986Z,96.03
2018-12-09T14:32:01.869Z,95.89
2018-12-09T14:33:54.768Z,95.89
2018-12-09T14:34:54.779Z,95.94
2018-12-09T14:36:47.711Z,96.41
2018-12-09T14:37:47.695Z,96.65
2018-12-09T14:39:41.609Z,94.13
2018-12-09T14:40:41.623Z,95.75
2018-12-09T14:42:34.536Z,98.32
2018-12-09T14:43:34.543Z,98.13
2018-12-09T14:45:27.443Z,96.17
2018-12-09T14:46:27.456Z,95.98
2018-12-09T14:48:20.361Z,96.98
2018-12-09T14:49:20.367Z,98.03
2018-12-09T14:51:13.767Z,98.60
2018-12-09T14:52:13.771Z,99.55
2018-12-09T14:54:06.673Z,99.99
2018-12-09T14:55:06.686Z,99.99
2018-12-09T14:56:59.790Z,99.99
2018-12-09T14:57:59.796Z,99.99
2018-12-09T14:59:53.196Z,99.99
2018-12-09T15:00:53.210Z,99.99
2018-12-09T15:02:46.606Z,99.99
2018-12-09T15:03:46.611Z,99.99
2018-12-09T15:05:40.008Z,99.99
2018-12-09T15:06:40.017Z,99.99
2018-12-09T15:08:32.926Z,99.99
2018-12-09T15:09:32.926Z,99.99
2018-12-09T15:11:25.825Z,99.99
2018-12-09T15:12:25.837Z,99.99
2018-12-09T15:14:18.742Z,99.99
2018-12-09T15:15:18.746Z,99.99
2018-12-09T15:17:11.660Z,99.99
2018-12-09T15:18:11.682Z,99.99
2018-12-09T15:20:04.561Z,99.99
2018-12-09T15:21:04.574Z,99.99
2018-12-09T15:22:58.473Z,99.99
2018-12-09T15:23:58.484Z,99.74
2018-12-09T15:25:51.886Z,99.16
2018-12-09T15:26:51.948Z,99.36
2018-12-09T15:28:44.776Z,99.16
2018-12-09T15:29:44.804Z,99.16
2018-12-09T15:31:37.702Z,99.99
2018-12-09T15:32:37.703Z,99.99
2018-12-09T15:34:30.602Z,99.74
2018-12-09T15:35:30.614Z,99.99
2018-12-09T15:37:23.521Z,98.79
2018-12-09T15:38:23.521Z,98.31
2018-12-09T15:40:16.433Z,98.79
2018-12-09T15:41:16.438Z,98.41
2018-12-09T15:43:09.334Z,98.69
2018-12-09T15:44:09.349Z,98.79
2018-12-09T15:46:02.251Z,99.99
2018-12-09T15:47:02.258Z,99.69
2018-12-09T15:48:55.163Z,99.99
2018-12-09T15:49:55.168Z,99.99
2018-12-09T15:51:48.076Z,99.99
2018-12-09T15:52:48.077Z,99.99
2018-12-09T15:54:40.980Z,99.99
2018-12-09T15:55:40.994Z,99.99
2018-12-09T15:57:33.896Z,99.99
2018-12-09T15:58:33.900Z,99.99
2018-12-09T16:00:26.799Z,95.51
2018-12-09T16:01:26.811Z,96.08
2018-12-09T16:03:19.714Z,97.60
2018-12-09T16:04:19.720Z,98.45
2018-12-09T16:06:14.104Z,99.69
2018-12-09T16:07:14.118Z,99.99
2018-12-09T16:09:07.023Z,99.99
2018-12-09T16:10:07.077Z,99.99
2018-12-09T16:11:59.943Z,99.99
2018-12-09T16:12:59.941Z,99.99
2018-12-09T16:14:52.832Z,99.99
2018-12-09T16:15:52.891Z,99.99
2018-12-09T16:17:45.751Z,99.99
2018-12-09T16:18:45.754Z,99.99
2018-12-09T16:20:38.650Z,99.99
2018-12-09T16:21:38.661Z,99.99
2018-12-09T16:23:31.565Z,99.99
2018-12-09T16:24:31.568Z,99.99
2018-12-09T16:26:24.465Z,99.99
2018-12-09T16:27:24.478Z,99.99
2018-12-09T16:29:18.023Z,99.99
2018-12-09T16:30:17.441Z,99.99
2018-12-09T16:32:10.303Z,99.99
2018-12-09T16:33:10.294Z,99.99
2018-12-09T16:35:03.298Z,99.99
2018-12-09T16:36:03.311Z,99.99
2018-12-09T16:37:56.213Z,99.99
2018-12-09T16:38:56.211Z,99.99
2018-12-09T16:40:49.113Z,99.99
2018-12-09T16:41:49.122Z,99.99
2018-12-09T16:43:42.032Z,99.99
2018-12-09T16:44:42.037Z,99.99
2018-12-09T16:46:35.442Z,99.99
2018-12-09T16:47:35.451Z,99.99
2018-12-09T16:49:28.859Z,99.99
2018-12-09T16:50:28.868Z,99.99
2018-12-09T16:52:22.284Z,99.99
2018-12-09T16:53:22.277Z,99.99
2018-12-09T16:55:15.662Z,99.99
2018-12-09T16:56:15.677Z,99.99
2018-12-09T16:58:08.588Z,99.99
2018-12-09T16:59:08.593Z,99.99
2018-12-09T17:01:01.490Z,99.99
2018-12-09T17:02:01.504Z,99.99
2018-12-09T17:03:54.937Z,99.99
2018-12-09T17:04:54.932Z,99.99
2018-12-09T17:06:47.817Z,99.99
2018-12-09T17:07:47.830Z,99.99
2018-12-09T17:09:40.730Z,99.99
2018-12-09T17:10:40.736Z,99.99
2018-12-09T17:12:33.637Z,99.99
2018-12-09T17:13:33.647Z,99.99
2018-12-09T17:15:26.540Z,99.99
2018-12-09T17:16:26.550Z,99.99
2018-12-09T17:18:19.457Z,99.99
2018-12-09T17:19:19.459Z,99.99
2018-12-09T17:21:12.360Z,99.99
2018-12-09T17:22:12.386Z,99.99
2018-12-09T17:24:05.769Z,99.99
2018-12-09T17:25:05.774Z,99.99
2018-12-09T17:26:58.684Z,99.99
2018-12-09T17:27:58.791Z,99.99
2018-12-09T17:29:51.593Z,99.99
2018-12-09T17:30:51.612Z,99.99
2018-12-09T17:32:44.520Z,99.99
2018-12-09T17:33:44.525Z,99.99
2018-12-09T17:35:37.467Z,99.99
2018-12-09T17:36:37.439Z,99.99
2018-12-09T17:38:30.829Z,99.99
2018-12-09T17:39:30.835Z,99.99
2018-12-09T17:41:25.216Z,99.99
2018-12-09T17:42:23.765Z,99.99
2018-12-09T17:44:17.151Z,99.99
2018-12-09T17:45:17.156Z,99.99
2018-12-09T17:47:10.053Z,99.99
2018-12-09T17:48:10.079Z,99.99
2018-12-09T17:50:02.967Z,99.99
2018-12-09T17:51:02.969Z,99.99
2018-12-09T17:52:55.869Z,99.99
2018-12-09T17:53:55.873Z,99.99
2018-12-09T17:55:48.768Z,99.99
2018-12-09T17:56:49.279Z,99.99
2018-12-09T17:58:41.682Z,99.99
2018-12-09T17:59:41.794Z,99.99
2018-12-09T18:01:34.583Z,99.99
2018-12-09T18:02:34.596Z,99.99
2018-12-09T18:04:27.497Z,99.99
2018-12-09T18:05:27.505Z,99.99
2018-12-09T18:07:20.400Z,99.99
2018-12-09T18:08:20.417Z,99.99
2018-12-09T18:10:13.314Z,99.99
2018-12-09T18:11:13.405Z,99.99
2018-12-09T18:13:06.249Z,99.99
2018-12-09T18:14:06.227Z,99.99
2018-12-09T18:15:59.118Z,99.99
2018-12-09T18:16:59.132Z,99.99
2018-12-09T18:18:52.045Z,99.99
2018-12-09T18:19:52.040Z,99.99
2018-12-09T18:21:44.934Z,99.99
2018-12-09T18:22:44.946Z,99.99
2018-12-09T18:24:37.853Z,99.99
2018-12-09T18:25:37.860Z,99.99
2018-12-09T18:27:30.778Z,99.99
2018-12-09T18:28:30.764Z,99.99
2018-12-09T18:30:23.666Z,99.99
2018-12-09T18:31:23.780Z,99.99
2018-12-09T18:33:16.576Z,99.99